Terminal Aerodrome Forecast
Issued by NWS

Home | Current Version | Previous Version | Text Only | Print | Product List | Glossary On
Versions: 1 2 3 4 5 6 7 8 9 10 11 12
000
FTUS46 KSGX 281700
TAFCRQ
TAF
KCRQ 281722Z 2818/2918 VRB05KT P6SM FEW250
     FM291200 17004KT 4SM BR BKN004
     FM291500 18005KT P6SM FEW006=

USA.gov is the U.S. government's official web portal to all federal, state and local government web resources and services.